createdAt,value
2016-07-14T00:00:55.634Z,94.27
2016-07-14T00:01:55.652Z,93.41
2016-07-14T00:02:56.397Z,93.02
2016-07-14T00:03:55.681Z,93.88
2016-07-14T00:04:55.712Z,93.79
2016-07-14T00:05:55.723Z,92.55
2016-07-14T00:06:55.745Z,91.97
2016-07-14T00:07:55.759Z,92.45
2016-07-14T00:08:55.774Z,92.64
2016-07-14T00:09:55.796Z,92.74
2016-07-14T00:10:55.805Z,91.88
2016-07-14T00:11:55.820Z,91.97
2016-07-14T00:12:55.843Z,92.64
2016-07-14T00:13:55.861Z,93.7
2016-07-14T00:14:55.870Z,93.41
2016-07-14T00:15:55.893Z,92.79
2016-07-14T00:16:55.907Z,91.02
2016-07-14T00:17:55.932Z,90.06
2016-07-14T00:18:55.948Z,90.35
2016-07-14T00:19:55.965Z,91.11
2016-07-14T00:20:55.982Z,91.78
2016-07-14T00:21:55.993Z,89.87
2016-07-14T00:22:56.012Z,90.92
2016-07-14T00:23:56.032Z,90.35
2016-07-14T00:24:56.061Z,89.78
2016-07-14T00:25:56.064Z,90.83
2016-07-14T00:26:56.086Z,91.11
2016-07-14T00:27:56.105Z,90.92
2016-07-14T00:28:56.123Z,91.11
2016-07-14T00:29:56.138Z,91.11
2016-07-14T00:30:56.157Z,91.5
2016-07-14T00:31:56.172Z,91.97
2016-07-14T00:32:56.189Z,92.64
2016-07-14T00:33:56.205Z,92.45
2016-07-14T00:34:56.224Z,92.55
2016-07-14T00:35:56.240Z,91.93
2016-07-14T00:36:56.260Z,91.93
2016-07-14T00:37:56.279Z,90.78
2016-07-14T00:38:56.295Z,89.68
2016-07-14T00:39:56.314Z,89.44
2016-07-14T00:40:56.331Z,89.53
2016-07-14T00:41:56.341Z,89.15
2016-07-14T00:42:56.372Z,89.73
2016-07-14T00:43:56.378Z,89.06
2016-07-14T00:44:56.402Z,89.06
2016-07-14T00:45:56.414Z,88.73
2016-07-14T00:46:56.432Z,88.82
2016-07-14T00:47:56.449Z,89.78
2016-07-14T00:48:56.471Z,89.97
2016-07-14T00:49:56.483Z,90.54
2016-07-14T00:50:56.501Z,91.21
2016-07-14T00:51:56.526Z,90.64
2016-07-14T00:52:56.540Z,90.83
2016-07-14T00:53:56.558Z,90.64
2016-07-14T00:54:56.570Z,90.25
2016-07-14T00:55:56.597Z,90.92
2016-07-14T00:56:56.611Z,90.25
2016-07-14T00:57:56.629Z,90.54
2016-07-14T00:58:56.639Z,90.3
2016-07-14T00:59:56.663Z,90.88
2016-07-14T01:00:56.679Z,90.97
2016-07-14T01:06:56.783Z,91.45
2016-07-14T01:07:56.805Z,91.83
2016-07-14T01:08:56.814Z,91.35
2016-07-14T01:09:56.836Z,92.02
2016-07-14T01:10:56.858Z,91.83
2016-07-14T01:11:56.873Z,90.88
2016-07-14T01:12:56.892Z,91.25
2016-07-14T01:13:56.905Z,92.11
2016-07-14T01:14:56.939Z,92.02
2016-07-14T01:15:56.943Z,91.78
2016-07-14T01:16:56.965Z,90.01
2016-07-14T01:17:56.981Z,90.59
2016-07-14T01:18:56.996Z,90.88
2016-07-14T01:19:57.009Z,91.16
2016-07-14T01:20:57.028Z,91.35
2016-07-14T01:21:57.059Z,90.88
2016-07-14T01:22:57.065Z,91.06
2016-07-14T01:23:57.089Z,91.74
2016-07-14T01:24:57.107Z,92.88
2016-07-14T01:25:57.116Z,93.16
2016-07-14T01:26:57.135Z,93.45
2016-07-14T01:27:57.161Z,91.93
2016-07-14T01:28:57.169Z,92.3
2016-07-14T01:29:57.190Z,92.5
2016-07-14T01:30:57.205Z,92.64
2016-07-14T01:31:57.226Z,92.5
2016-07-14T01:32:57.249Z,92.59
2016-07-14T01:33:57.265Z,91.97
2016-07-14T01:34:57.287Z,91.54
2016-07-14T01:35:57.294Z,91.45
2016-07-14T01:36:57.311Z,92.02
2016-07-14T01:37:57.336Z,91.64
2016-07-14T01:38:57.351Z,90.82
2016-07-14T01:39:57.367Z,91.16
2016-07-14T01:40:57.388Z,91.06
2016-07-14T01:41:57.407Z,91.06
2016-07-14T01:42:57.425Z,92.11
2016-07-14T01:43:57.454Z,92.11
2016-07-14T01:44:57.450Z,92.4
2016-07-14T01:45:57.480Z,92.5
2016-07-14T01:46:57.493Z,92.69
2016-07-14T01:47:57.512Z,92.64
2016-07-14T01:48:57.530Z,92.69
2016-07-14T01:49:57.551Z,92.21
2016-07-14T01:50:57.559Z,92.02
2016-07-14T01:51:57.585Z,91.25
2016-07-14T01:52:57.616Z,91.64
2016-07-14T01:53:57.621Z,92.3
2016-07-14T01:54:57.738Z,91.97
2016-07-14T01:55:57.652Z,91.78
2016-07-14T01:56:57.749Z,91.83
2016-07-14T01:57:57.685Z,92.74
2016-07-14T01:58:57.757Z,92.69
2016-07-14T01:59:57.724Z,91.97
2016-07-14T02:00:57.750Z,91.83
2016-07-14T02:01:57.759Z,91.93
2016-07-14T02:02:57.845Z,92.69
2016-07-14T02:03:57.797Z,92.88
2016-07-14T02:04:57.850Z,92.4
2016-07-14T02:05:57.839Z,92.59
2016-07-14T02:06:57.850Z,93.45
2016-07-14T02:07:57.868Z,94.12
2016-07-14T02:08:57.887Z,93.55
2016-07-14T02:09:57.908Z,93.36
2016-07-14T02:10:57.924Z,93.07
2016-07-14T02:11:57.942Z,93.45
2016-07-14T02:12:57.966Z,93.26
2016-07-14T02:13:57.972Z,93.07
2016-07-14T02:14:57.991Z,93.16
2016-07-14T02:15:58.018Z,93.07
2016-07-14T02:16:58.023Z,93.16
2016-07-14T02:17:58.049Z,94.12
2016-07-14T02:18:58.056Z,93.84
2016-07-14T02:19:58.084Z,93.93
2016-07-14T02:20:58.091Z,93.36
2016-07-14T02:21:58.118Z,93.45
2016-07-14T02:22:58.135Z,93.65
2016-07-14T02:23:58.152Z,93.07
2016-07-14T02:24:58.173Z,93.36
2016-07-14T02:25:58.182Z,93.26
2016-07-14T02:26:58.207Z,93.74
2016-07-14T02:27:58.219Z,93.36
2016-07-14T02:28:58.237Z,93.26
2016-07-14T02:29:58.256Z,93.36
2016-07-14T02:30:58.277Z,93.07
2016-07-14T02:31:58.295Z,93.74
2016-07-14T02:32:58.312Z,94.02
2016-07-14T02:33:58.330Z,93.26
2016-07-14T02:34:58.349Z,93.36
2016-07-14T02:35:58.367Z,93.93
2016-07-14T02:36:58.385Z,94.02
2016-07-14T02:37:58.407Z,93.84
2016-07-14T02:38:58.421Z,94.12
2016-07-14T02:39:58.438Z,94.7
2016-07-14T02:40:58.459Z,94.02
2016-07-14T02:41:58.478Z,95.07
2016-07-14T02:42:58.489Z,94.6
2016-07-14T02:43:58.521Z,94.6
2016-07-14T02:44:58.524Z,94.6
2016-07-14T02:45:58.548Z,95.36
2016-07-14T02:46:58.555Z,94.79
2016-07-14T02:47:58.582Z,94.6
2016-07-14T02:48:58.598Z,95.27
2016-07-14T02:49:58.620Z,94.22
2016-07-14T02:50:58.635Z,94.7
2016-07-14T02:51:58.649Z,94.89
2016-07-14T02:52:58.677Z,94.7
2016-07-14T02:53:58.687Z,95.17
2016-07-14T02:54:58.699Z,94.51
2016-07-14T02:55:58.725Z,94.51
2016-07-14T02:56:58.731Z,94.41
2016-07-14T02:57:58.763Z,94.41
2016-07-14T02:58:58.769Z,94.79
2016-07-14T02:59:58.794Z,94.12
2016-07-14T03:00:58.804Z,94.22
2016-07-14T03:01:58.830Z,94.6
2016-07-14T03:02:58.848Z,95.27
2016-07-14T03:03:58.862Z,95.07
2016-07-14T03:04:58.881Z,94.51
2016-07-14T03:05:58.902Z,95.17
2016-07-14T03:06:58.911Z,95.17
2016-07-14T03:07:58.926Z,94.7
2016-07-14T03:08:58.948Z,95.17
2016-07-14T03:09:58.975Z,94.6
2016-07-14T03:10:58.982Z,94.98
2016-07-14T03:11:59.009Z,95.56
2016-07-14T03:12:59.023Z,95.36
2016-07-14T03:13:59.041Z,95.56
2016-07-14T03:14:59.065Z,95.75
2016-07-14T03:15:59.071Z,95.17
2016-07-14T03:16:59.099Z,94.6
2016-07-14T03:17:59.108Z,95.12
2016-07-14T03:18:59.122Z,95.79
2016-07-14T03:19:59.148Z,95.12
2016-07-14T03:20:59.163Z,95.17
2016-07-14T03:21:59.186Z,94.46
2016-07-14T03:22:59.200Z,95.22
2016-07-14T03:23:59.221Z,95.12
2016-07-14T03:24:59.228Z,94.55
2016-07-14T03:25:59.263Z,95.32
2016-07-14T03:26:59.271Z,95.32
2016-07-14T03:27:59.291Z,95.32
2016-07-14T03:28:59.307Z,94.55
2016-07-14T03:29:59.323Z,94.74
2016-07-14T03:30:59.338Z,94.74
2016-07-14T03:31:59.357Z,94.84
2016-07-14T03:32:59.376Z,94.65
2016-07-14T03:33:59.406Z,94.74
2016-07-14T03:34:59.407Z,95.36
2016-07-14T03:35:59.429Z,95.32
2016-07-14T03:36:59.443Z,95.51
2016-07-14T03:37:59.465Z,95.22
2016-07-14T03:38:59.481Z,95.41
2016-07-14T03:39:59.501Z,94.84
2016-07-14T03:40:59.521Z,95.03
2016-07-14T03:41:59.534Z,94.55
2016-07-14T03:42:59.550Z,94.6
2016-07-14T03:43:59.568Z,95.07
2016-07-14T03:44:59.580Z,95.07
2016-07-14T03:45:59.606Z,94.65
2016-07-14T03:46:59.615Z,95.27
2016-07-14T03:47:59.634Z,95.36
2016-07-14T03:48:59.652Z,94.12
2016-07-14T03:49:59.677Z,94.79
2016-07-14T03:50:59.685Z,94.55
2016-07-14T03:51:59.705Z,94.36
2016-07-14T03:52:59.718Z,94.46
2016-07-14T03:53:59.747Z,94.55
2016-07-14T03:54:59.766Z,94.22
2016-07-14T03:55:59.781Z,94.65
2016-07-14T03:56:59.794Z,93.93
2016-07-14T03:57:59.808Z,93.26
2016-07-14T03:58:59.827Z,93.65
2016-07-14T03:59:59.844Z,94.22
2016-07-14T04:00:59.900Z,93.98
2016-07-14T04:01:59.883Z,93.36
2016-07-14T04:02:59.899Z,94.07
2016-07-14T04:03:59.915Z,94.12
2016-07-14T04:04:59.929Z,93.98
2016-07-14T04:05:59.954Z,93.93
2016-07-14T04:07:00.015Z,93.93
2016-07-14T04:07:59.985Z,93.55
2016-07-14T04:09:00.050Z,93.7
2016-07-14T04:10:00.020Z,93.7
2016-07-14T04:11:00.100Z,93.7
2016-07-14T04:12:00.060Z,94.17
2016-07-14T04:13:00.113Z,94.6
2016-07-14T04:14:00.096Z,93.98
2016-07-14T04:15:00.154Z,93.7
2016-07-14T04:16:00.131Z,94.55
2016-07-14T04:17:00.198Z,93.79
2016-07-14T04:18:00.167Z,94.36
2016-07-14T04:19:00.208Z,94.27
2016-07-14T04:20:00.197Z,94.46
2016-07-14T04:21:00.245Z,94.36
2016-07-14T04:22:00.239Z,94.74
2016-07-14T04:23:00.248Z,94.36
2016-07-14T04:24:00.274Z,93.74
2016-07-14T04:25:00.290Z,93.7
2016-07-14T04:26:00.308Z,93.6
2016-07-14T04:27:00.327Z,93.7
2016-07-14T04:28:00.345Z,93.79
2016-07-14T04:29:00.362Z,93.98
2016-07-14T04:30:00.372Z,93.93
2016-07-14T04:31:00.396Z,93.6
2016-07-14T04:32:00.414Z,93.98
2016-07-14T04:33:00.428Z,93.79
2016-07-14T04:34:00.446Z,93.79
2016-07-14T04:35:00.463Z,93.7
2016-07-14T04:36:00.478Z,93.79
2016-07-14T04:37:00.497Z,93.7
2016-07-14T04:38:00.519Z,94.07
2016-07-14T04:39:00.534Z,94.17
2016-07-14T04:40:00.556Z,94.36
2016-07-14T04:41:00.567Z,94.46
2016-07-14T04:42:00.586Z,94.55
2016-07-14T04:43:00.608Z,94.17
2016-07-14T04:44:00.622Z,93.41
2016-07-14T04:45:00.638Z,93.5
2016-07-14T04:46:00.654Z,93.31
2016-07-14T04:47:00.675Z,93.31
2016-07-14T04:48:00.698Z,93.02
2016-07-14T04:49:00.715Z,93.7
2016-07-14T04:50:00.729Z,93.98
2016-07-14T04:51:00.743Z,93.88
2016-07-14T04:52:00.761Z,93.6
2016-07-14T04:53:00.789Z,93.98
2016-07-14T04:54:00.800Z,93.02
2016-07-14T04:55:00.813Z,93.12
2016-07-14T04:56:00.831Z,93.5
2016-07-14T04:57:00.850Z,92.93
2016-07-14T04:58:00.863Z,92.64
2016-07-14T04:59:00.890Z,91.88
2016-07-14T05:00:00.906Z,92.74
2016-07-14T05:01:00.922Z,92.74
2016-07-14T05:02:00.940Z,93.02
2016-07-14T05:03:00.956Z,92.55
2016-07-14T05:04:00.977Z,92.45
2016-07-14T05:05:00.995Z,92.45
2016-07-14T05:06:01.009Z,92.74
2016-07-14T05:07:01.029Z,92.45
2016-07-14T05:08:01.038Z,91.97
2016-07-14T05:09:01.063Z,92.07
2016-07-14T05:10:01.079Z,92.64
2016-07-14T05:11:01.098Z,91.88
2016-07-14T05:12:01.111Z,91.21
2016-07-14T05:13:01.130Z,91.4
2016-07-14T05:14:01.153Z,91.88
2016-07-14T05:15:01.171Z,91.59
2016-07-14T05:16:01.181Z,91.45
2016-07-14T05:17:01.202Z,91.16
2016-07-14T05:18:01.215Z,90.39
2016-07-14T05:19:01.239Z,90.59
2016-07-14T05:20:01.253Z,90.01
2016-07-14T05:21:01.268Z,90.11
2016-07-14T05:22:01.285Z,89.92
2016-07-14T05:23:01.312Z,89.92
2016-07-14T05:24:01.319Z,88.96
2016-07-14T05:25:01.339Z,89.73
2016-07-14T05:26:01.364Z,90.3
2016-07-14T05:27:01.373Z,89.34
2016-07-14T05:28:01.391Z,89.82
2016-07-14T05:29:01.409Z,89.53
2016-07-14T05:30:01.438Z,89.44
2016-07-14T05:31:01.452Z,89.73
2016-07-14T05:32:01.464Z,88.87
2016-07-14T05:33:01.486Z,88.39
2016-07-14T05:34:01.497Z,88.39
2016-07-14T05:35:01.525Z,87.09
2016-07-14T05:36:01.533Z,87.91
2016-07-14T05:37:01.554Z,88.48
2016-07-14T05:38:01.574Z,87.91
2016-07-14T05:39:01.593Z,87.91
2016-07-14T05:40:01.612Z,88.15
2016-07-14T05:41:01.630Z,88.39
2016-07-14T05:42:01.649Z,87.48
2016-07-14T05:43:01.661Z,86.71
2016-07-14T05:44:01.682Z,87.48
2016-07-14T05:45:01.693Z,87.09
2016-07-14T05:46:01.714Z,85.57
2016-07-14T05:47:01.731Z,86.33
2016-07-14T05:48:01.757Z,86.04
2016-07-14T05:49:01.769Z,85.47
2016-07-14T05:50:01.789Z,85.47
2016-07-14T05:51:01.811Z,85.41
2016-07-14T05:52:01.821Z,84.17
2016-07-14T05:53:01.838Z,84.27
2016-07-14T05:54:01.864Z,83.36
2016-07-14T05:55:01.884Z,82.11
2016-07-14T05:56:01.906Z,82.2
2016-07-14T05:57:01.919Z,82.49
2016-07-14T05:58:01.935Z,81.92
2016-07-14T05:59:01.953Z,82.49
2016-07-14T06:00:01.971Z,84.02
2016-07-14T06:01:01.985Z,84.17
2016-07-14T06:02:02.006Z,84.17
2016-07-14T06:03:02.025Z,83.98
2016-07-14T06:04:02.044Z,83.22
2016-07-14T06:05:02.065Z,83.79
2016-07-14T06:06:02.085Z,83.89
2016-07-14T06:07:02.093Z,83.4
2016-07-14T06:08:02.117Z,83.6
2016-07-14T06:09:02.133Z,82.83
2016-07-14T06:10:02.150Z,82.93
2016-07-14T06:11:02.168Z,82.74
2016-07-14T06:12:02.191Z,83.12
2016-07-14T06:13:02.203Z,83.12
2016-07-14T06:14:02.246Z,82.64
2016-07-14T06:15:02.253Z,81.88
2016-07-14T06:16:02.262Z,82.54
2016-07-14T06:17:02.280Z,82.17
2016-07-14T06:18:02.296Z,81.78
2016-07-14T06:19:02.312Z,83.31
2016-07-14T06:20:02.336Z,83.12
2016-07-14T06:21:02.354Z,83.69
2016-07-14T06:22:02.364Z,82.17
2016-07-14T06:23:02.396Z,81.15
2016-07-14T06:24:02.407Z,80.77
2016-07-14T06:25:02.435Z,81.15
2016-07-14T06:26:02.450Z,81.63
2016-07-14T06:27:02.460Z,82.59
2016-07-14T06:28:02.487Z,81.82
2016-07-14T06:29:02.503Z,82.11
2016-07-14T06:30:02.517Z,81.92
2016-07-14T06:31:02.537Z,81.15
2016-07-14T06:32:02.558Z,81.44
2016-07-14T06:33:02.586Z,81
2016-07-14T06:34:02.592Z,79.91
2016-07-14T06:35:02.615Z,79.85
2016-07-14T06:36:02.636Z,79.75
2016-07-14T06:37:02.651Z,80.19
2016-07-14T06:38:02.670Z,81.34
2016-07-14T06:39:02.693Z,81.68
2016-07-14T06:40:02.711Z,81.97
2016-07-14T06:41:02.725Z,81.88
2016-07-14T06:42:02.742Z,81.68
2016-07-14T06:43:02.766Z,81.15
2016-07-14T06:44:02.784Z,80.29
2016-07-14T06:45:02.798Z,79.52
2016-07-14T06:46:02.822Z,80.19
2016-07-14T06:47:02.843Z,81.21
2016-07-14T06:48:02.858Z,81.59
2016-07-14T06:49:02.867Z,81.88
2016-07-14T06:50:02.894Z,82.64
2016-07-14T06:51:02.910Z,82.64
2016-07-14T06:52:02.933Z,82.54
2016-07-14T06:53:02.945Z,82.17
2016-07-14T06:54:02.965Z,81.63
2016-07-14T06:55:02.982Z,81.15
2016-07-14T06:56:03.003Z,80.96
2016-07-14T06:57:03.023Z,80.29
2016-07-14T06:58:03.046Z,79.95
2016-07-14T06:59:03.053Z,79.37
2016-07-14T07:00:03.076Z,78.32
2016-07-14T07:01:03.096Z,78.27
2016-07-14T07:02:03.124Z,78.17
2016-07-14T07:03:03.136Z,78.51
2016-07-14T07:04:03.151Z,79.66
2016-07-14T07:05:03.171Z,79.91
2016-07-14T07:06:03.198Z,80
2016-07-14T07:07:03.214Z,79.37
2016-07-14T07:08:03.233Z,78.32
2016-07-14T07:09:03.251Z,78.13
2016-07-14T07:10:03.279Z,77.94
2016-07-14T07:11:03.288Z,78.22
2016-07-14T07:12:03.303Z,77.84
2016-07-14T07:13:03.324Z,78.22
2016-07-14T07:14:03.343Z,77.59
2016-07-14T07:15:03.361Z,78.22
2016-07-14T07:16:03.379Z,78.32
2016-07-14T07:17:03.397Z,79.28
2016-07-14T07:18:03.421Z,79.66
2016-07-14T07:19:03.436Z,79.95
2016-07-14T07:20:03.454Z,79.75
2016-07-14T07:21:03.476Z,79.47
2016-07-14T07:22:03.497Z,79.47
2016-07-14T07:23:03.513Z,79.18
2016-07-14T07:24:03.535Z,80.24
2016-07-14T07:25:03.550Z,79.81
2016-07-14T07:26:03.570Z,78.51
2016-07-14T07:27:03.591Z,77.84
2016-07-14T07:28:03.609Z,77.26
2016-07-14T07:29:03.634Z,77.26
2016-07-14T07:30:03.646Z,77.84
2016-07-14T07:31:03.668Z,77.59
2016-07-14T07:32:03.682Z,77.4
2016-07-14T07:33:03.697Z,78.36
2016-07-14T07:34:03.726Z,77.78
2016-07-14T07:35:03.741Z,77.11
2016-07-14T07:36:03.764Z,77.31
2016-07-14T07:37:03.776Z,76.64
2016-07-14T07:38:03.801Z,77.4
2016-07-14T07:39:03.808Z,77.59
2016-07-14T07:40:03.841Z,77.78
2016-07-14T07:41:03.851Z,77.69
2016-07-14T07:42:03.871Z,77.11
2016-07-14T07:43:03.889Z,76.1
2016-07-14T07:44:03.909Z,76
2016-07-14T07:45:03.938Z,75.33
2016-07-14T07:46:03.949Z,74.37
2016-07-14T07:47:03.965Z,72.68
2016-07-14T07:48:03.989Z,71.34
2016-07-14T07:49:04.005Z,70.7
2016-07-14T07:50:04.029Z,71.76
2016-07-14T07:51:04.046Z,71.34
2016-07-14T07:52:04.068Z,70.57
2016-07-14T07:53:04.096Z,70.67
2016-07-14T07:54:04.108Z,70.38
2016-07-14T07:55:04.127Z,70.35
2016-07-14T07:56:04.144Z,71.11
2016-07-14T07:57:04.159Z,70.54
2016-07-14T07:58:04.183Z,69.62
2016-07-14T07:59:04.201Z,68.95
2016-07-14T08:00:04.224Z,67.99
2016-07-14T08:01:04.242Z,67.89
2016-07-14T08:02:04.259Z,68.95
2016-07-14T08:03:04.280Z,68.75
2016-07-14T08:04:04.303Z,67.79
2016-07-14T08:05:04.319Z,68.21
2016-07-14T08:06:04.343Z,67.35
2016-07-14T08:07:04.351Z,68.12
2016-07-14T08:08:04.380Z,68.3
2016-07-14T08:09:04.402Z,68.79
2016-07-14T08:10:04.417Z,67.92
2016-07-14T08:11:04.435Z,67.83
2016-07-14T08:12:04.462Z,68.21
2016-07-14T08:13:04.478Z,68.21
2016-07-14T08:14:04.497Z,69.33
2016-07-14T08:15:04.518Z,70.19
2016-07-14T08:16:04.537Z,69.48
2016-07-14T08:17:04.555Z,69.2
2016-07-14T08:18:04.592Z,70.7
2016-07-14T08:19:04.595Z,70.7
2016-07-14T08:20:04.616Z,71.08
2016-07-14T08:21:04.630Z,70.89
2016-07-14T08:22:04.651Z,72.09
2016-07-14T08:23:04.673Z,71.52
2016-07-14T08:24:04.681Z,70.89
2016-07-14T08:25:04.705Z,70.21
2016-07-14T08:26:04.732Z,69.45
2016-07-14T08:27:04.744Z,68.72
2016-07-14T08:28:04.770Z,67.69
2016-07-14T08:29:04.782Z,67.5
2016-07-14T08:30:04.805Z,66
2016-07-14T08:31:04.824Z,65.59
2016-07-14T08:32:04.844Z,65.52
2016-07-14T08:33:04.863Z,63.79
2016-07-14T08:34:04.880Z,63.92
2016-07-14T08:35:04.895Z,63.16
2016-07-14T08:36:04.925Z,62.01
2016-07-14T08:37:04.949Z,62.29
2016-07-14T08:38:04.964Z,63.03
2016-07-14T08:39:04.982Z,61.49
2016-07-14T08:40:04.998Z,61.49
2016-07-14T08:41:05.017Z,61.81
2016-07-14T08:42:05.043Z,62.1
2016-07-14T08:43:05.060Z,60.38
2016-07-14T08:44:05.089Z,58.96
2016-07-14T08:45:05.099Z,59.99
2016-07-14T08:46:05.125Z,61.49
2016-07-14T08:47:05.145Z,61.88
2016-07-14T08:48:05.160Z,61.3
2016-07-14T08:49:05.182Z,61.21
2016-07-14T08:50:05.192Z,61.3
2016-07-14T08:51:05.218Z,62.04
2016-07-14T08:52:05.239Z,62.23
2016-07-14T08:53:05.260Z,63.83
2016-07-14T08:54:05.281Z,63.16
2016-07-14T08:55:05.294Z,63.06
2016-07-14T08:56:05.318Z,63.16
2016-07-14T08:57:05.339Z,63.92
2016-07-14T08:58:05.360Z,61.37
2016-07-14T08:59:05.376Z,61.18
2016-07-14T09:00:05.409Z,61.3
2016-07-14T09:01:05.418Z,59
2016-07-14T09:02:05.427Z,58.55
2016-07-14T09:03:05.457Z,57.78
2016-07-14T09:04:05.478Z,56.66
2016-07-14T09:05:05.494Z,56.46
2016-07-14T09:06:05.510Z,57.04
2016-07-14T09:07:05.539Z,57.43
2016-07-14T09:08:05.555Z,57.52
2016-07-14T09:09:05.567Z,56.56
2016-07-14T09:10:05.590Z,56.53
2016-07-14T09:11:05.618Z,56.51
2016-07-14T09:12:05.628Z,56.12
2016-07-14T09:13:05.651Z,57.37
2016-07-14T09:14:05.668Z,57.95
2016-07-14T09:15:05.703Z,58.33
2016-07-14T09:16:05.713Z,58.71
2016-07-14T09:17:05.726Z,57.95
2016-07-14T09:18:05.745Z,58.07
2016-07-14T09:19:05.776Z,56.73
2016-07-14T09:20:05.788Z,57.14
2016-07-14T09:21:05.818Z,56.18
2016-07-14T09:22:05.825Z,54.47
2016-07-14T09:23:05.855Z,53.7
2016-07-14T09:24:05.874Z,54.77
2016-07-14T09:25:05.896Z,52.58
2016-07-14T09:26:05.912Z,51.91
2016-07-14T09:27:05.933Z,51.72
2016-07-14T09:28:05.954Z,52.58
2016-07-14T09:29:05.971Z,52.48
2016-07-14T09:30:05.998Z,52.58
2016-07-14T09:31:06.009Z,53.25
2016-07-14T09:32:06.039Z,54.47
2016-07-14T09:33:06.055Z,54.57
2016-07-14T09:34:06.073Z,52.46
2016-07-14T09:35:06.096Z,52.65
2016-07-14T09:36:06.119Z,53.13
2016-07-14T09:37:06.135Z,53.68
2016-07-14T09:38:06.153Z,55
2016-07-14T09:39:06.171Z,55.57
2016-07-14T09:40:06.204Z,55.38
2016-07-14T09:41:06.215Z,56.15
2016-07-14T09:42:06.236Z,57.75
2016-07-14T09:43:06.253Z,57.95
2016-07-14T09:44:06.281Z,58.97
2016-07-14T09:45:06.295Z,59.48
2016-07-14T09:46:06.312Z,58.01
2016-07-14T09:47:06.339Z,58.87
2016-07-14T09:48:06.361Z,59.16
2016-07-14T09:49:06.374Z,59.45
2016-07-14T09:50:06.398Z,58.49
2016-07-14T09:51:06.421Z,58.3
2016-07-14T09:52:06.430Z,57.06
2016-07-14T09:53:06.447Z,57.18
2016-07-14T09:54:06.473Z,56.12
2016-07-14T09:55:06.499Z,56.02
2016-07-14T09:56:06.509Z,55.45
2016-07-14T09:57:06.535Z,56.02
2016-07-14T09:58:06.544Z,54.78
2016-07-14T09:59:06.575Z,54.39
2016-07-14T10:00:06.593Z,54.68
2016-07-14T10:01:06.610Z,54.01
2016-07-14T10:02:06.636Z,54.58
2016-07-14T10:03:06.649Z,54.49
2016-07-14T10:04:06.671Z,53.17
2016-07-14T10:05:06.684Z,52.34
2016-07-14T10:06:06.714Z,49.77
2016-07-14T10:07:06.739Z,49.38
2016-07-14T10:08:06.755Z,48.54
2016-07-14T10:09:06.775Z,47.97
2016-07-14T10:10:06.788Z,46.74
2016-07-14T10:11:06.814Z,46.38
2016-07-14T10:12:06.833Z,45.97
2016-07-14T10:13:06.857Z,46.84
2016-07-14T10:14:06.871Z,45.97
2016-07-14T10:15:06.891Z,46.55
2016-07-14T10:16:06.916Z,46.45
2016-07-14T10:17:06.939Z,46.62
2016-07-14T10:18:06.950Z,48.07
2016-07-14T10:19:06.970Z,48.45
2016-07-14T10:20:07.005Z,48.08
2016-07-14T10:21:07.018Z,47.03
2016-07-14T10:22:07.036Z,45.29
2016-07-14T10:23:07.056Z,44.65
2016-07-14T10:24:07.080Z,45.22
2016-07-14T10:25:07.102Z,45.42
2016-07-14T10:26:07.115Z,45.32
2016-07-14T10:27:07.139Z,45.32
2016-07-14T10:28:07.164Z,45.8
2016-07-14T10:29:07.188Z,45.99
2016-07-14T10:30:07.213Z,45.7
2016-07-14T10:31:07.225Z,44.96
2016-07-14T10:32:07.246Z,45.99
2016-07-14T10:33:07.269Z,45.7
2016-07-14T10:34:07.287Z,47.05
2016-07-14T10:35:07.314Z,48.76
2016-07-14T10:36:07.335Z,49.69
2016-07-14T10:37:07.358Z,51.62
2016-07-14T10:38:07.376Z,52.48
2016-07-14T10:39:07.398Z,53.16
2016-07-14T10:40:07.418Z,54.86
2016-07-14T10:41:07.430Z,54.47
2016-07-14T10:42:07.459Z,54.12
2016-07-14T10:43:07.480Z,54.69
2016-07-14T10:44:07.494Z,54
2016-07-14T10:45:07.519Z,55.05
2016-07-14T10:46:07.539Z,54.57
2016-07-14T10:47:07.567Z,54.67
2016-07-14T10:48:07.576Z,54.77
2016-07-14T10:49:07.601Z,54.86
2016-07-14T10:50:07.620Z,53.9
2016-07-14T10:51:07.637Z,50.73
2016-07-14T10:52:07.664Z,49.48
2016-07-14T10:53:07.682Z,48.16
2016-07-14T10:54:07.707Z,48.16
2016-07-14T10:55:07.723Z,48.07
2016-07-14T10:56:07.741Z,47.13
2016-07-14T10:57:07.767Z,47.13
2016-07-14T10:58:07.795Z,47.22
2016-07-14T10:59:07.815Z,46.45
2016-07-14T11:00:07.827Z,46.26
2016-07-14T11:01:07.850Z,45.87
2016-07-14T11:02:07.867Z,45.29
2016-07-14T11:03:07.886Z,44.91
2016-07-14T11:04:07.911Z,45.99
2016-07-14T11:05:07.933Z,45.32
2016-07-14T11:06:07.953Z,44.55
2016-07-14T11:07:07.969Z,42.65
2016-07-14T11:08:07.993Z,42.55
2016-07-14T11:09:08.022Z,42.74
2016-07-14T11:10:08.043Z,43.99
2016-07-14T11:11:08.060Z,42.65
2016-07-14T11:12:08.082Z,41.97
2016-07-14T11:13:08.105Z,43.8
2016-07-14T11:14:08.121Z,44.86
2016-07-14T11:15:08.137Z,43.51
2016-07-14T11:16:08.161Z,43.41
2016-07-14T11:17:08.179Z,41.68
2016-07-14T11:18:08.202Z,41.49
2016-07-14T11:19:08.225Z,41.01
2016-07-14T11:20:08.243Z,40.43
2016-07-14T11:21:08.272Z,40.43
2016-07-14T11:22:08.294Z,41.08
2016-07-14T11:23:08.317Z,41.56
2016-07-14T11:24:08.338Z,43.3
2016-07-14T11:25:08.354Z,43.4
2016-07-14T11:26:08.379Z,43.97
2016-07-14T11:27:08.396Z,45.22
2016-07-14T11:28:08.423Z,45.32
2016-07-14T11:29:08.440Z,45.42
2016-07-14T11:30:08.462Z,45.51
2016-07-14T11:31:08.482Z,46.11
2016-07-14T11:32:08.501Z,45.7
2016-07-14T11:33:08.528Z,45.73
2016-07-14T11:34:08.545Z,45.99
2016-07-14T11:35:08.568Z,46.09
2016-07-14T11:36:08.591Z,45.8
2016-07-14T11:37:08.606Z,45.42
2016-07-14T11:38:08.626Z,45.42
2016-07-14T11:39:08.657Z,45.05
2016-07-14T11:40:08.668Z,45.92
2016-07-14T11:41:08.705Z,45.83
2016-07-14T11:42:08.718Z,46.59
2016-07-14T11:43:08.731Z,46.86
2016-07-14T11:44:08.753Z,47.15
2016-07-14T11:45:08.779Z,48.3
2016-07-14T11:46:08.805Z,48.4
2016-07-14T11:47:08.819Z,47.92
2016-07-14T11:48:08.844Z,48.21
2016-07-14T11:49:08.877Z,47.53
2016-07-14T11:50:08.887Z,47.92
2016-07-14T11:51:08.903Z,48.11
2016-07-14T11:52:08.929Z,48.3
2016-07-14T11:53:08.952Z,48.13
2016-07-14T11:54:08.968Z,47.56
2016-07-14T11:55:08.986Z,47.36
2016-07-14T11:56:09.010Z,48.49
2016-07-14T11:57:09.035Z,49.55
2016-07-14T11:58:09.054Z,49.46
2016-07-14T11:59:09.070Z,49.38
2016-07-14T12:00:09.099Z,49.58
2016-07-14T12:01:09.115Z,49.55
2016-07-14T12:02:09.144Z,49.17
2016-07-14T12:03:09.157Z,49.46
2016-07-14T12:04:09.179Z,49.27
2016-07-14T12:05:09.205Z,48.21
2016-07-14T12:06:09.221Z,46.78
2016-07-14T12:08:09.258Z,44.57
2016-07-14T12:09:09.290Z,44.57
2016-07-14T12:10:09.310Z,44.31
2016-07-14T12:11:09.336Z,43.63
2016-07-14T12:12:09.352Z,43.37
2016-07-14T12:13:09.375Z,42.97
2016-07-14T12:14:09.395Z,41.63
2016-07-14T12:15:09.418Z,41.72
2016-07-14T12:16:09.434Z,42.69
2016-07-14T12:17:09.458Z,43.34
2016-07-14T12:18:09.481Z,43.15
2016-07-14T12:19:09.502Z,42.49
2016-07-14T12:20:09.519Z,43.46
2016-07-14T12:21:09.545Z,43.27
2016-07-14T12:22:09.569Z,43.27
2016-07-14T12:23:09.595Z,43
2016-07-14T12:24:09.604Z,42.69
2016-07-14T12:25:09.629Z,43.55
2016-07-14T12:26:09.657Z,44.04
2016-07-14T12:27:09.673Z,42.79
2016-07-14T12:28:09.699Z,43.46
2016-07-14T12:29:09.717Z,42.88
2016-07-14T12:30:09.734Z,43.75
2016-07-14T12:31:09.779Z,45.29
2016-07-14T12:32:09.783Z,45.2
2016-07-14T12:33:09.809Z,45
2016-07-14T12:34:09.824Z,44.23
2016-07-14T12:35:09.851Z,43.38
2016-07-14T12:36:09.874Z,42.73
2016-07-14T12:37:09.895Z,43.62
2016-07-14T12:38:09.917Z,42.85
2016-07-14T12:39:09.940Z,42.1
2016-07-14T12:40:09.957Z,41.91
2016-07-14T12:41:09.986Z,43.04
2016-07-14T12:42:10.008Z,42.87
2016-07-14T12:43:10.027Z,43.14
2016-07-14T12:44:10.053Z,43.72
2016-07-14T12:45:10.078Z,43.04
2016-07-14T12:46:10.093Z,43.33
2016-07-14T12:47:10.120Z,44.56
2016-07-14T12:48:10.140Z,44.73
2016-07-14T12:49:10.166Z,45.31
2016-07-14T12:50:10.176Z,45.1
2016-07-14T12:51:10.211Z,45.1
2016-07-14T12:52:10.229Z,45.48
2016-07-14T12:53:10.247Z,45.2
2016-07-14T12:54:10.271Z,45.87
2016-07-14T12:55:10.293Z,45.2
2016-07-14T12:56:10.320Z,45.48
2016-07-14T12:57:10.338Z,44.69
2016-07-14T12:58:10.362Z,44.02
2016-07-14T12:59:10.385Z,45.94
2016-07-14T13:00:10.401Z,44.49
2016-07-14T13:01:10.430Z,44.98
2016-07-14T13:02:10.447Z,45.36